SHT8K EGLL-EGPH
Flight info
| Callsign | SHT8K |
|---|---|
| Flight time | 0h 56m |
| Altitude | 32000 |
| Route | ULTIB T420 TNT UN57 POL UN601 RIBEL DCT INPIP |
| Aircraft | A321/M-SDE3FGHIRWY/LB1 |
Departure
| Time | 2026-04-23 17:22 |
|---|---|
| Airport | London Heathrow Airport (EGLL) |
Arrival
| Time | 2026-04-23 18:19 |
|---|---|
| Airport | Edinburgh Airport (EGPH) |
| Time | Latitude | Longitude | Altitude | Speed | Heading |
|---|---|---|---|---|---|
| 2026-04-23 16:40 | 51.47053 | -0.48037 | 87 ft | 0 kts | 270° |
| 2026-04-23 17:12 | 51.47053 | -0.48033 | 87 ft | 2 kts | 269° |
| 2026-04-23 17:12 | 51.47053 | -0.48006 | 88 ft | 2 kts | 272° |
| 2026-04-23 17:12 | 51.47053 | -0.47980 | 87 ft | 2 kts | 268° |
| 2026-04-23 17:12 | 51.47054 | -0.47953 | 87 ft | 2 kts | 262° |
| 2026-04-23 17:13 | 51.47056 | -0.47927 | 87 ft | 2 kts | 264° |
| 2026-04-23 17:13 | 51.47058 | -0.47901 | 88 ft | 2 kts | 255° |
| 2026-04-23 17:13 | 51.47065 | -0.47876 | 91 ft | 2 kts | 202° |
| 2026-04-23 17:13 | 51.47074 | -0.47872 | 91 ft | 0 kts | 179° |
| 2026-04-23 17:15 | 51.47060 | -0.47872 | 89 ft | 5 kts | 178° |
| 2026-04-23 17:15 | 51.46995 | -0.47870 | 87 ft | 11 kts | 180° |
| 2026-04-23 17:15 | 51.46913 | -0.47870 | 87 ft | 12 kts | 180° |
| 2026-04-23 17:16 | 51.46830 | -0.47870 | 87 ft | 7 kts | 180° |
| 2026-04-23 17:16 | 51.46813 | -0.47870 | 87 ft | 2 kts | 180° |
| 2026-04-23 17:16 | 51.46777 | -0.47872 | 87 ft | 7 kts | 188° |
| 2026-04-23 17:16 | 51.46745 | -0.47930 | 87 ft | 8 kts | 251° |
| 2026-04-23 17:17 | 51.46742 | -0.48028 | 87 ft | 9 kts | 271° |
| 2026-04-23 17:17 | 51.46743 | -0.48107 | 87 ft | 0 kts | 270° |
| 2026-04-23 17:18 | 51.46712 | -0.48213 | 87 ft | 12 kts | 202° |
| 2026-04-23 17:18 | 51.46632 | -0.48216 | 87 ft | 10 kts | 179° |
| 2026-04-23 17:18 | 51.46604 | -0.48216 | 87 ft | 2 kts | 180° |
| 2026-04-23 17:19 | 51.46602 | -0.48216 | 87 ft | 0 kts | 180° |
| 2026-04-23 17:20 | 51.46488 | -0.48182 | 91 ft | 12 kts | 130° |
| 2026-04-23 17:21 | 51.46479 | -0.48128 | 87 ft | 0 kts | 92° |
| 2026-04-23 17:21 | 51.46479 | -0.48090 | 87 ft | 13 kts | 90° |
| 2026-04-23 17:21 | 51.46484 | -0.46397 | 92 ft | 137 kts | 90° |
| 2026-04-23 17:22 | 51.46488 | -0.44652 | 308 ft | 163 kts | 91° |
| 2026-04-23 17:22 | 51.46739 | -0.41076 | 1663 ft | 170 kts | 64° |
| 2026-04-23 17:23 | 51.48431 | -0.37642 | 2191 ft | 222 kts | 53° |
| 2026-04-23 17:23 | 51.49450 | -0.35635 | 2681 ft | 238 kts | 53° |
| 2026-04-23 17:23 | 51.51583 | -0.31411 | 4156 ft | 249 kts | 54° |
| 2026-04-23 17:24 | 51.52495 | -0.29058 | 4851 ft | 250 kts | 72° |
| 2026-04-23 17:24 | 51.53068 | -0.26436 | 5576 ft | 253 kts | 72° |
| 2026-04-23 17:24 | 51.55631 | -0.22499 | 6926 ft | 279 kts | 16° |
| 2026-04-23 17:25 | 51.59576 | -0.22796 | 8374 ft | 292 kts | 351° |
| 2026-04-23 17:25 | 51.61463 | -0.23605 | 9039 ft | 298 kts | 339° |
| 2026-04-23 17:26 | 51.65062 | -0.27110 | 10415 ft | 305 kts | 331° |
| 2026-04-23 17:26 | 51.68932 | -0.30707 | 10885 ft | 342 kts | 332° |
| 2026-04-23 17:27 | 51.72470 | -0.34068 | 11549 ft | 358 kts | 331° |
| 2026-04-23 17:27 | 51.74622 | -0.36147 | 12148 ft | 361 kts | 330° |
| 2026-04-23 17:27 | 51.76425 | -0.37901 | 12661 ft | 364 kts | 330° |
| 2026-04-23 17:27 | 51.78600 | -0.40021 | 13203 ft | 367 kts | 330° |
| 2026-04-23 17:28 | 51.80796 | -0.42160 | 13820 ft | 370 kts | 330° |
| 2026-04-23 17:28 | 51.83008 | -0.44314 | 14384 ft | 373 kts | 331° |
| 2026-04-23 17:28 | 51.85238 | -0.46481 | 14924 ft | 376 kts | 331° |
| 2026-04-23 17:28 | 51.87486 | -0.48668 | 15462 ft | 378 kts | 330° |
| 2026-04-23 17:29 | 51.89743 | -0.50865 | 16006 ft | 381 kts | 330° |
| 2026-04-23 17:29 | 51.92023 | -0.53088 | 16540 ft | 383 kts | 330° |
| 2026-04-23 17:29 | 51.96621 | -0.57573 | 17599 ft | 388 kts | 330° |
| 2026-04-23 17:30 | 51.98940 | -0.59835 | 18137 ft | 390 kts | 330° |
| 2026-04-23 17:30 | 52.03589 | -0.64373 | 19120 ft | 395 kts | 330° |
| 2026-04-23 17:30 | 52.05946 | -0.66683 | 19574 ft | 396 kts | 330° |
| 2026-04-23 17:31 | 52.08306 | -0.69009 | 20040 ft | 398 kts | 330° |
| 2026-04-23 17:31 | 52.10674 | -0.71350 | 20500 ft | 399 kts | 330° |
| 2026-04-23 17:31 | 52.13050 | -0.73699 | 20962 ft | 400 kts | 330° |
| 2026-04-23 17:31 | 52.15434 | -0.76052 | 21398 ft | 402 kts | 330° |
| 2026-04-23 17:32 | 52.17830 | -0.78412 | 21868 ft | 403 kts | 330° |
| 2026-04-23 17:32 | 52.20231 | -0.80777 | 22305 ft | 405 kts | 330° |
| 2026-04-23 17:32 | 52.22643 | -0.83159 | 22741 ft | 406 kts | 330° |
| 2026-04-23 17:32 | 52.25063 | -0.85550 | 23166 ft | 408 kts | 329° |
| 2026-04-23 17:33 | 52.27491 | -0.87954 | 23586 ft | 409 kts | 329° |
| 2026-04-23 17:33 | 52.29932 | -0.90374 | 24019 ft | 411 kts | 329° |
| 2026-04-23 17:33 | 52.32375 | -0.92803 | 24386 ft | 412 kts | 329° |
| 2026-04-23 17:33 | 52.34827 | -0.95250 | 24727 ft | 414 kts | 329° |
| 2026-04-23 17:34 | 52.37291 | -0.97715 | 25076 ft | 416 kts | 329° |
| 2026-04-23 17:34 | 52.39765 | -1.00188 | 25423 ft | 417 kts | 329° |
| 2026-04-23 17:34 | 52.44736 | -1.05174 | 26053 ft | 421 kts | 328° |
| 2026-04-23 17:35 | 52.47236 | -1.07686 | 26371 ft | 422 kts | 328° |
| 2026-04-23 17:35 | 52.52261 | -1.12734 | 27010 ft | 425 kts | 328° |
| 2026-04-23 17:35 | 52.54795 | -1.15286 | 27306 ft | 427 kts | 328° |
| 2026-04-23 17:36 | 52.57331 | -1.17838 | 27620 ft | 429 kts | 328° |
| 2026-04-23 17:36 | 52.59877 | -1.20404 | 27938 ft | 430 kts | 328° |
| 2026-04-23 17:36 | 52.62396 | -1.22955 | 28268 ft | 431 kts | 328° |
| 2026-04-23 17:36 | 52.64990 | -1.25585 | 28578 ft | 433 kts | 328° |
| 2026-04-23 17:37 | 52.67526 | -1.28157 | 28893 ft | 434 kts | 328° |
| 2026-04-23 17:37 | 52.70103 | -1.30768 | 29214 ft | 436 kts | 328° |
| 2026-04-23 17:37 | 52.75278 | -1.36023 | 29971 ft | 438 kts | 328° |
| 2026-04-23 17:38 | 52.77876 | -1.38672 | 30275 ft | 439 kts | 328° |
| 2026-04-23 17:38 | 52.80482 | -1.41333 | 30548 ft | 441 kts | 328° |
| 2026-04-23 17:38 | 52.83091 | -1.44000 | 30782 ft | 442 kts | 328° |
| 2026-04-23 17:38 | 52.85704 | -1.46676 | 31000 ft | 442 kts | 328° |
| 2026-04-23 17:39 | 52.88321 | -1.49366 | 31232 ft | 443 kts | 328° |
| 2026-04-23 17:39 | 52.90932 | -1.52057 | 31550 ft | 441 kts | 328° |
| 2026-04-23 17:39 | 52.93532 | -1.54739 | 31841 ft | 439 kts | 328° |
| 2026-04-23 17:39 | 52.96124 | -1.57413 | 32123 ft | 438 kts | 328° |
| 2026-04-23 17:40 | 52.98716 | -1.60088 | 32373 ft | 438 kts | 328° |
| 2026-04-23 17:40 | 53.03799 | -1.65339 | 32437 ft | 422 kts | 328° |
| 2026-04-23 17:41 | 53.09128 | -1.69293 | 32439 ft | 419 kts | 339° |
| 2026-04-23 17:41 | 53.17270 | -1.74332 | 32442 ft | 419 kts | 339° |
| 2026-04-23 17:42 | 53.25414 | -1.79407 | 32440 ft | 418 kts | 339° |
| 2026-04-23 17:43 | 53.30870 | -1.82816 | 32440 ft | 419 kts | 339° |
| 2026-04-23 17:43 | 53.36328 | -1.86229 | 32442 ft | 419 kts | 339° |
| 2026-04-23 17:44 | 53.41795 | -1.89650 | 32447 ft | 419 kts | 339° |
| 2026-04-23 17:44 | 53.49989 | -1.94820 | 32450 ft | 419 kts | 339° |
| 2026-04-23 17:45 | 53.58174 | -2.00005 | 32451 ft | 419 kts | 339° |
| 2026-04-23 17:46 | 53.66353 | -2.05197 | 32462 ft | 419 kts | 339° |
| 2026-04-23 17:46 | 53.71801 | -2.08680 | 32463 ft | 418 kts | 339° |
| 2026-04-23 17:47 | 53.77240 | -2.12205 | 32411 ft | 418 kts | 339° |
| 2026-04-23 17:48 | 53.85338 | -2.17764 | 32444 ft | 419 kts | 339° |
| 2026-04-23 17:48 | 53.90727 | -2.21487 | 32454 ft | 418 kts | 339° |
| 2026-04-23 17:49 | 53.96121 | -2.25196 | 32456 ft | 418 kts | 339° |
| 2026-04-23 17:49 | 54.01476 | -2.28869 | 32460 ft | 418 kts | 339° |
| 2026-04-23 17:50 | 54.06855 | -2.32573 | 32466 ft | 417 kts | 339° |
| 2026-04-23 17:50 | 54.14765 | -2.38045 | 32468 ft | 416 kts | 339° |
| 2026-04-23 17:51 | 54.20143 | -2.41786 | 32451 ft | 422 kts | 339° |
| 2026-04-23 17:52 | 54.28447 | -2.47571 | 32446 ft | 432 kts | 339° |
| 2026-04-23 17:52 | 54.33866 | -2.51362 | 32072 ft | 410 kts | 339° |
| 2026-04-23 17:52 | 54.36475 | -2.53199 | 31817 ft | 401 kts | 339° |
| 2026-04-23 17:53 | 54.41541 | -2.56759 | 31320 ft | 393 kts | 339° |
| 2026-04-23 17:53 | 54.44065 | -2.58534 | 31070 ft | 391 kts | 339° |
| 2026-04-23 17:53 | 54.46577 | -2.60305 | 30824 ft | 390 kts | 339° |
| 2026-04-23 17:54 | 54.49084 | -2.62074 | 30577 ft | 389 kts | 339° |
| 2026-04-23 17:54 | 54.51580 | -2.63840 | 30305 ft | 388 kts | 339° |
| 2026-04-23 17:54 | 54.56552 | -2.67361 | 29737 ft | 385 kts | 339° |
| 2026-04-23 17:55 | 54.61496 | -2.70873 | 29172 ft | 383 kts | 338° |
| 2026-04-23 17:55 | 54.63957 | -2.72624 | 28897 ft | 382 kts | 338° |
| 2026-04-23 17:55 | 54.66408 | -2.74375 | 28624 ft | 381 kts | 338° |
| 2026-04-23 17:56 | 54.68852 | -2.76123 | 28354 ft | 380 kts | 338° |
| 2026-04-23 17:56 | 54.73666 | -2.79565 | 27830 ft | 378 kts | 338° |
| 2026-04-23 17:56 | 54.76096 | -2.81299 | 27566 ft | 377 kts | 338° |
| 2026-04-23 17:57 | 54.78517 | -2.83028 | 27299 ft | 376 kts | 338° |
| 2026-04-23 17:57 | 54.80937 | -2.84764 | 27054 ft | 375 kts | 338° |
| 2026-04-23 17:57 | 54.85751 | -2.88231 | 26534 ft | 373 kts | 338° |
| 2026-04-23 17:58 | 54.88140 | -2.89956 | 26299 ft | 369 kts | 338° |
| 2026-04-23 17:58 | 54.90492 | -2.91658 | 25946 ft | 364 kts | 338° |
| 2026-04-23 17:58 | 54.92799 | -2.93330 | 25462 ft | 363 kts | 338° |
| 2026-04-23 17:58 | 54.95116 | -2.95007 | 25062 ft | 359 kts | 338° |
| 2026-04-23 17:59 | 54.97420 | -2.96675 | 24604 ft | 358 kts | 338° |
| 2026-04-23 17:59 | 54.99713 | -2.98337 | 24150 ft | 356 kts | 338° |
| 2026-04-23 17:59 | 55.02000 | -2.99996 | 23631 ft | 355 kts | 338° |
| 2026-04-23 17:59 | 55.04298 | -3.01667 | 22753 ft | 363 kts | 338° |
| 2026-04-23 18:00 | 55.06656 | -3.03389 | 22232 ft | 361 kts | 338° |
| 2026-04-23 18:00 | 55.08933 | -3.05054 | 21743 ft | 359 kts | 337° |
| 2026-04-23 18:00 | 55.11229 | -3.06733 | 21239 ft | 357 kts | 337° |
| 2026-04-23 18:00 | 55.13515 | -3.08401 | 20748 ft | 355 kts | 337° |
| 2026-04-23 18:01 | 55.15780 | -3.10054 | 20467 ft | 349 kts | 337° |
| 2026-04-23 18:01 | 55.18010 | -3.11681 | 20440 ft | 345 kts | 337° |
| 2026-04-23 18:01 | 55.20212 | -3.13291 | 20444 ft | 341 kts | 337° |
| 2026-04-23 18:01 | 55.22394 | -3.14894 | 20445 ft | 340 kts | 337° |
| 2026-04-23 18:02 | 55.23866 | -3.15977 | 20446 ft | 340 kts | 337° |
| 2026-04-23 18:02 | 55.26752 | -3.18100 | 20229 ft | 340 kts | 337° |
| 2026-04-23 18:02 | 55.28970 | -3.19540 | 19725 ft | 340 kts | 346° |
| 2026-04-23 18:02 | 55.31307 | -3.20107 | 19237 ft | 339 kts | 360° |
| 2026-04-23 18:03 | 55.33658 | -3.19847 | 18796 ft | 338 kts | 5° |
| 2026-04-23 18:03 | 55.36001 | -3.19479 | 18311 ft | 337 kts | 5° |
| 2026-04-23 18:03 | 55.38331 | -3.19112 | 17848 ft | 335 kts | 5° |
| 2026-04-23 18:03 | 55.40647 | -3.18750 | 17398 ft | 333 kts | 5° |
| 2026-04-23 18:04 | 55.42947 | -3.18390 | 16957 ft | 331 kts | 4° |
| 2026-04-23 18:04 | 55.45232 | -3.18033 | 16519 ft | 329 kts | 4° |
| 2026-04-23 18:04 | 55.47496 | -3.17679 | 16095 ft | 326 kts | 4° |
| 2026-04-23 18:04 | 55.49749 | -3.17328 | 15688 ft | 324 kts | 4° |
| 2026-04-23 18:05 | 55.51985 | -3.16974 | 15282 ft | 322 kts | 4° |
| 2026-04-23 18:05 | 55.54206 | -3.16620 | 14877 ft | 319 kts | 4° |
| 2026-04-23 18:05 | 55.56414 | -3.16274 | 14486 ft | 317 kts | 4° |
| 2026-04-23 18:05 | 55.58605 | -3.15934 | 14075 ft | 315 kts | 4° |
| 2026-04-23 18:06 | 55.60742 | -3.15598 | 13786 ft | 305 kts | 4° |
| 2026-04-23 18:06 | 55.62865 | -3.15263 | 13291 ft | 306 kts | 4° |
| 2026-04-23 18:06 | 55.64963 | -3.14940 | 12826 ft | 306 kts | 2° |
| 2026-04-23 18:06 | 55.67045 | -3.15455 | 12365 ft | 303 kts | 336° |
| 2026-04-23 18:07 | 55.68749 | -3.17550 | 11915 ft | 299 kts | 309° |
| 2026-04-23 18:07 | 55.69728 | -3.20731 | 11473 ft | 295 kts | 283° |
| 2026-04-23 18:07 | 55.69810 | -3.24315 | 11031 ft | 292 kts | 257° |
| 2026-04-23 18:07 | 55.69242 | -3.27751 | 10597 ft | 291 kts | 251° |
| 2026-04-23 18:08 | 55.68821 | -3.30061 | 10302 ft | 291 kts | 251° |
| 2026-04-23 18:08 | 55.67986 | -3.34584 | 9673 ft | 292 kts | 251° |
| 2026-04-23 18:08 | 55.67356 | -3.38000 | 9206 ft | 292 kts | 251° |
| 2026-04-23 18:08 | 55.66731 | -3.41410 | 8743 ft | 291 kts | 251° |
| 2026-04-23 18:09 | 55.66107 | -3.44824 | 8282 ft | 291 kts | 251° |
| 2026-04-23 18:09 | 55.65482 | -3.48228 | 7835 ft | 291 kts | 251° |
| 2026-04-23 18:09 | 55.65056 | -3.51715 | 7385 ft | 290 kts | 266° |
| 2026-04-23 18:09 | 55.65259 | -3.55245 | 7048 ft | 287 kts | 285° |
| 2026-04-23 18:10 | 55.66058 | -3.58423 | 6803 ft | 281 kts | 302° |
| 2026-04-23 18:10 | 55.67331 | -3.60996 | 6536 ft | 276 kts | 316° |
| 2026-04-23 18:10 | 55.68736 | -3.63257 | 6178 ft | 268 kts | 316° |
| 2026-04-23 18:10 | 55.70103 | -3.65374 | 5772 ft | 255 kts | 318° |
| 2026-04-23 18:11 | 55.71441 | -3.67329 | 5375 ft | 243 kts | 319° |
| 2026-04-23 18:11 | 55.72734 | -3.69181 | 4992 ft | 238 kts | 319° |
| 2026-04-23 18:11 | 55.74023 | -3.71027 | 4589 ft | 238 kts | 319° |
| 2026-04-23 18:11 | 55.75308 | -3.72876 | 4176 ft | 238 kts | 319° |
| 2026-04-23 18:12 | 55.76518 | -3.74820 | 3982 ft | 227 kts | 315° |
| 2026-04-23 18:12 | 55.77607 | -3.76690 | 3993 ft | 209 kts | 319° |
| 2026-04-23 18:12 | 55.78870 | -3.77796 | 4022 ft | 202 kts | 347° |
| 2026-04-23 18:12 | 55.80227 | -3.77701 | 4001 ft | 199 kts | 17° |
| 2026-04-23 18:13 | 55.81397 | -3.76467 | 4005 ft | 196 kts | 46° |
| 2026-04-23 18:13 | 55.82236 | -3.74577 | 4005 ft | 195 kts | 59° |
| 2026-04-23 18:13 | 55.82947 | -3.72525 | 4001 ft | 194 kts | 60° |
| 2026-04-23 18:13 | 55.83650 | -3.70473 | 4000 ft | 195 kts | 60° |
| 2026-04-23 18:14 | 55.84126 | -3.69083 | 3974 ft | 195 kts | 60° |
| 2026-04-23 18:14 | 55.84823 | -3.67055 | 3796 ft | 194 kts | 60° |
| 2026-04-23 18:14 | 55.85523 | -3.65017 | 3563 ft | 192 kts | 60° |
| 2026-04-23 18:14 | 55.86215 | -3.63000 | 3307 ft | 191 kts | 60° |
| 2026-04-23 18:15 | 55.86889 | -3.61036 | 3053 ft | 179 kts | 60° |
| 2026-04-23 18:15 | 55.87519 | -3.59197 | 2820 ft | 171 kts | 60° |
| 2026-04-23 18:15 | 55.88129 | -3.57413 | 2586 ft | 167 kts | 60° |
| 2026-04-23 18:15 | 55.88729 | -3.55658 | 2383 ft | 164 kts | 60° |
| 2026-04-23 18:16 | 55.89319 | -3.53932 | 2147 ft | 163 kts | 60° |
| 2026-04-23 18:16 | 55.89904 | -3.52220 | 1922 ft | 161 kts | 60° |
| 2026-04-23 18:16 | 55.90457 | -3.50599 | 1727 ft | 160 kts | 60° |
| 2026-04-23 18:17 | 55.91591 | -3.47274 | 1291 ft | 149 kts | 60° |
| 2026-04-23 18:17 | 55.92119 | -3.45725 | 1076 ft | 145 kts | 60° |
| 2026-04-23 18:17 | 55.92637 | -3.44202 | 860 ft | 143 kts | 59° |
| 2026-04-23 18:17 | 55.93150 | -3.42692 | 684 ft | 142 kts | 59° |
| 2026-04-23 18:18 | 55.93659 | -3.41196 | 477 ft | 141 kts | 59° |
| 2026-04-23 18:18 | 55.94167 | -3.39709 | 268 ft | 140 kts | 60° |
| 2026-04-23 18:18 | 55.94639 | -3.38309 | 139 ft | 139 kts | 60° |
| 2026-04-23 18:18 | 55.95097 | -3.36958 | 114 ft | 105 kts | 58° |
| 2026-04-23 18:19 | 55.95322 | -3.36297 | 106 ft | 32 kts | 59° |
| 2026-04-23 18:19 | 55.95425 | -3.35992 | 106 ft | 25 kts | 59° |
| 2026-04-23 18:19 | 55.95501 | -3.35765 | 110 ft | 17 kts | 60° |
| 2026-04-23 18:19 | 55.95566 | -3.35563 | 107 ft | 15 kts | 74° |
| 2026-04-23 18:20 | 55.95499 | -3.35441 | 108 ft | 13 kts | 148° |
| 2026-04-23 18:20 | 55.95430 | -3.35419 | 110 ft | 3 kts | 223° |
| 2026-04-23 18:21 | 55.95427 | -3.35424 | 109 ft | 2 kts | 225° |
| 2026-04-23 18:21 | 55.95402 | -3.35490 | 110 ft | 12 kts | 240° |
| 2026-04-23 18:21 | 55.95343 | -3.35659 | 108 ft | 19 kts | 237° |
| 2026-04-23 18:22 | 55.95273 | -3.35867 | 107 ft | 20 kts | 238° |
| 2026-04-23 18:22 | 55.95197 | -3.36090 | 107 ft | 21 kts | 238° |
| 2026-04-23 18:22 | 55.95129 | -3.36298 | 109 ft | 17 kts | 239° |
| 2026-04-23 18:22 | 55.95073 | -3.36394 | 111 ft | 9 kts | 186° |
| 2026-04-23 18:23 | 55.95010 | -3.36414 | 109 ft | 11 kts | 223° |
| 2026-04-23 18:23 | 55.94928 | -3.36655 | 110 ft | 8 kts | 239° |
| 2026-04-23 18:24 | 55.94866 | -3.36617 | 107 ft | 5 kts | 144° |
| 2026-04-23 18:24 | 55.94862 | -3.36612 | 108 ft | 0 kts | 144° |